LFBO/TLS METAR and TAF weather

Enter ICAO airport designator
Station Type Date Time Source
LFBO METAR 2022/01/19 19:00 UTC NOAA

LFBO 191900Z AUTO 27008KT CAVOK 06/05 Q1031 TEMPO 4000 -DZ BKN008 OVC020


Station Type Date Time Source
LFBO Decoded METAR 2022/01/19 19:00 UTC NOAA

Toulouse / Blagnac, France (LFBO) 43-38N 001-22E 153M
Jan 19, 2022 - 02:00 PM EST / 2022.01.19 1900 UTC
Wind: from the W (270 degrees) at 9 MPH (8 KT):0
Visibility: greater than 7 mile(s):0
Temperature: 42 F (6 C)
Dew Point: 41 F (5 C)
Relative Humidity: 93%
Pressure (altimeter): 30.45 in. Hg (1031 hPa)
ob: LFBO 191900Z AUTO 27008KT CAVOK 06/05 Q1031 TEMPO 4000 -DZ BKN008 OVC020
cycle: 19

Station Type Date Time Source
LFBO TAF 2022/01/19 18:42 UTC NOAA

TAF LFBO 191700Z 1918/2024 26004KT 9999 FEW015 BKN030
TEMPO 1920/1923 4000 -DZ BKN008 OVC020
BECMG 2002/2004 OVC007
TEMPO 2003/2009 2000 -DZ OVC004
BECMG 2011/2013 SCT010 BKN050
TEMPO 2019/2022 BKN012

Example: see airport list